Terminal Aerodrome Forecast
Issued by NWS Melbourne, FL

Home | Current Version | Previous Version | Text Only | Print | Product List | Glossary On
Versions: 1 2 3 4 5 6 7 8 9 10 11 12 13 14 15
000
FTUS42 KMLB 251735
TAFDAB
TAF
KDAB 251735Z 2518/2618 11010KT P6SM SCT025 SCT250
     FM260100 09006KT P6SM VCSH SCT025
     FM261400 11010KT P6SM SCT020=

USA.gov is the U.S. government's official web portal to all federal, state and local government web resources and services.